sensor_id;sensor_type;location;lat;lon;timestamp;temperature;humidity
36352;DHT22;22382;44.768;17.206;2022-09-01T00:01:36;20.10;99.90
36352;DHT22;22382;44.768;17.206;2022-09-01T00:04:09;20.10;99.90
36352;DHT22;22382;44.768;17.206;2022-09-01T00:06:39;20.10;99.90
36352;DHT22;22382;44.768;17.206;2022-09-01T00:09:12;20.10;99.90
36352;DHT22;22382;44.768;17.206;2022-09-01T00:11:42;20.10;99.90
36352;DHT22;22382;44.768;17.206;2022-09-01T00:14:17;20.10;99.90
36352;DHT22;22382;44.768;17.206;2022-09-01T00:17:02;20.10;99.90
36352;DHT22;22382;44.768;17.206;2022-09-01T00:19:30;20.20;99.90
36352;DHT22;22382;44.768;17.206;2022-09-01T00:21:59;20.20;99.90
36352;DHT22;22382;44.768;17.206;2022-09-01T00:24:27;20.20;99.90
36352;DHT22;22382;44.768;17.206;2022-09-01T00:26:55;20.30;99.90
36352;DHT22;22382;44.768;17.206;2022-09-01T00:29:23;20.20;99.90
36352;DHT22;22382;44.768;17.206;2022-09-01T00:31:51;20.20;99.90
36352;DHT22;22382;44.768;17.206;2022-09-01T00:34:18;20.30;99.90
36352;DHT22;22382;44.768;17.206;2022-09-01T00:36:46;20.20;99.90
36352;DHT22;22382;44.768;17.206;2022-09-01T00:39:14;20.20;99.90
36352;DHT22;22382;44.768;17.206;2022-09-01T00:41:42;20.20;99.90
36352;DHT22;22382;44.768;17.206;2022-09-01T00:44:17;20.20;99.90
36352;DHT22;22382;44.768;17.206;2022-09-01T00:46:47;20.20;99.90
36352;DHT22;22382;44.768;17.206;2022-09-01T00:49:28;20.20;99.90
36352;DHT22;22382;44.768;17.206;2022-09-01T00:52:19;20.10;99.90
36352;DHT22;22382;44.768;17.206;2022-09-01T00:54:49;20.20;99.90
36352;DHT22;22382;44.768;17.206;2022-09-01T00:57:17;20.20;99.90
36352;DHT22;22382;44.768;17.206;2022-09-01T00:59:52;20.20;99.90
36352;DHT22;22382;44.768;17.206;2022-09-01T01:02:20;20.20;99.90
36352;DHT22;22382;44.768;17.206;2022-09-01T01:04:48;20.30;99.90
36352;DHT22;22382;44.768;17.206;2022-09-01T01:07:19;20.30;99.90
36352;DHT22;22382;44.768;17.206;2022-09-01T01:09:49;20.20;99.90
36352;DHT22;22382;44.768;17.206;2022-09-01T01:12:17;20.20;99.90
36352;DHT22;22382;44.768;17.206;2022-09-01T01:14:47;20.20;99.90
36352;DHT22;22382;44.768;17.206;2022-09-01T01:17:18;20.20;99.90
36352;DHT22;22382;44.768;17.206;2022-09-01T01:19:49;20.20;99.90
36352;DHT22;22382;44.768;17.206;2022-09-01T01:25:38;20.10;99.90
36352;DHT22;22382;44.768;17.206;2022-09-01T01:28:13;20.00;99.90
36352;DHT22;22382;44.768;17.206;2022-09-01T01:30:48;20.00;99.90
36352;DHT22;22382;44.768;17.206;2022-09-01T01:33:20;20.00;99.90
36352;DHT22;22382;44.768;17.206;2022-09-01T01:35:49;20.10;99.90
36352;DHT22;22382;44.768;17.206;2022-09-01T01:38:19;20.00;99.90
36352;DHT22;22382;44.768;17.206;2022-09-01T01:40:50;20.10;99.90
36352;DHT22;22382;44.768;17.206;2022-09-01T01:43:17;20.10;99.90
36352;DHT22;22382;44.768;17.206;2022-09-01T01:45:50;20.10;99.90
36352;DHT22;22382;44.768;17.206;2022-09-01T01:48:19;20.10;99.90
36352;DHT22;22382;44.768;17.206;2022-09-01T01:50:51;20.00;99.90
36352;DHT22;22382;44.768;17.206;2022-09-01T01:53:18;20.00;99.90
36352;DHT22;22382;44.768;17.206;2022-09-01T01:55:47;19.90;99.90
36352;DHT22;22382;44.768;17.206;2022-09-01T01:58:17;19.90;99.90
36352;DHT22;22382;44.768;17.206;2022-09-01T02:00:47;19.90;99.90
36352;DHT22;22382;44.768;17.206;2022-09-01T02:03:17;19.90;99.90
36352;DHT22;22382;44.768;17.206;2022-09-01T02:05:48;19.90;99.90
36352;DHT22;22382;44.768;17.206;2022-09-01T02:08:16;19.80;99.90
36352;DHT22;22382;44.768;17.206;2022-09-01T02:10:52;19.80;99.90
36352;DHT22;22382;44.768;17.206;2022-09-01T02:13:22;19.80;99.90
36352;DHT22;22382;44.768;17.206;2022-09-01T02:15:54;19.80;99.90
36352;DHT22;22382;44.768;17.206;2022-09-01T02:18:24;19.80;99.90
36352;DHT22;22382;44.768;17.206;2022-09-01T02:20:54;19.80;99.90
36352;DHT22;22382;44.768;17.206;2022-09-01T02:23:22;19.80;99.90
36352;DHT22;22382;44.768;17.206;2022-09-01T02:25:56;19.80;99.90
36352;DHT22;22382;44.768;17.206;2022-09-01T02:28:46;19.80;99.90
36352;DHT22;22382;44.768;17.206;2022-09-01T02:31:22;19.80;99.90
36352;DHT22;22382;44.768;17.206;2022-09-01T02:33:49;19.80;99.90
36352;DHT22;22382;44.768;17.206;2022-09-01T02:36:17;19.80;99.90
36352;DHT22;22382;44.768;17.206;2022-09-01T02:38:46;19.70;99.90
36352;DHT22;22382;44.768;17.206;2022-09-01T02:41:21;19.70;99.90
36352;DHT22;22382;44.768;17.206;2022-09-01T02:43:55;19.70;99.90
36352;DHT22;22382;44.768;17.206;2022-09-01T02:46:22;19.70;99.90
36352;DHT22;22382;44.768;17.206;2022-09-01T02:48:51;19.70;99.90
36352;DHT22;22382;44.768;17.206;2022-09-01T02:51:21;19.60;99.90
36352;DHT22;22382;44.768;17.206;2022-09-01T02:53:52;19.60;99.90
36352;DHT22;22382;44.768;17.206;2022-09-01T02:56:22;19.50;99.90
36352;DHT22;22382;44.768;17.206;2022-09-01T02:58:51;19.50;99.90
36352;DHT22;22382;44.768;17.206;2022-09-01T03:01:25;19.50;99.90
36352;DHT22;22382;44.768;17.206;2022-09-01T03:04:00;19.40;99.90
36352;DHT22;22382;44.768;17.206;2022-09-01T03:06:28;19.40;99.90
36352;DHT22;22382;44.768;17.206;2022-09-01T03:08:57;19.40;99.90
36352;DHT22;22382;44.768;17.206;2022-09-01T03:11:28;19.30;99.90
36352;DHT22;22382;44.768;17.206;2022-09-01T03:13:55;19.20;99.90
36352;DHT22;22382;44.768;17.206;2022-09-01T03:16:22;19.20;99.90
36352;DHT22;22382;44.768;17.206;2022-09-01T03:18:50;19.20;99.90
36352;DHT22;22382;44.768;17.206;2022-09-01T03:21:18;19.20;99.90
36352;DHT22;22382;44.768;17.206;2022-09-01T03:23:47;19.10;99.90
36352;DHT22;22382;44.768;17.206;2022-09-01T03:26:15;19.10;99.90
36352;DHT22;22382;44.768;17.206;2022-09-01T03:28:45;19.10;99.90
36352;DHT22;22382;44.768;17.206;2022-09-01T03:31:12;19.10;99.90
36352;DHT22;22382;44.768;17.206;2022-09-01T03:33:40;19.10;99.90
36352;DHT22;22382;44.768;17.206;2022-09-01T03:36:08;19.10;99.90
36352;DHT22;22382;44.768;17.206;2022-09-01T03:38:49;19.00;99.90
36352;DHT22;22382;44.768;17.206;2022-09-01T03:41:21;19.00;99.90
36352;DHT22;22382;44.768;17.206;2022-09-01T03:43:49;18.90;99.90
36352;DHT22;22382;44.768;17.206;2022-09-01T03:46:17;18.90;99.90
36352;DHT22;22382;44.768;17.206;2022-09-01T03:48:56;18.90;99.90
36352;DHT22;22382;44.768;17.206;2022-09-01T03:51:25;18.90;99.90
36352;DHT22;22382;44.768;17.206;2022-09-01T03:53:54;18.90;99.90
36352;DHT22;22382;44.768;17.206;2022-09-01T03:56:24;18.90;99.90
36352;DHT22;22382;44.768;17.206;2022-09-01T03:58:55;18.70;99.90
36352;DHT22;22382;44.768;17.206;2022-09-01T04:01:24;18.70;99.90
36352;DHT22;22382;44.768;17.206;2022-09-01T04:03:52;18.70;99.90
36352;DHT22;22382;44.768;17.206;2022-09-01T04:06:19;18.60;99.90
36352;DHT22;22382;44.768;17.206;2022-09-01T04:08:50;18.70;99.90
36352;DHT22;22382;44.768;17.206;2022-09-01T04:11:21;18.50;99.90
36352;DHT22;22382;44.768;17.206;2022-09-01T04:13:50;18.50;99.90
36352;DHT22;22382;44.768;17.206;2022-09-01T04:16:26;18.40;99.90
36352;DHT22;22382;44.768;17.206;2022-09-01T04:19:15;18.30;99.90
36352;DHT22;22382;44.768;17.206;2022-09-01T04:21:47;18.30;99.90
36352;DHT22;22382;44.768;17.206;2022-09-01T04:24:17;18.30;99.90
36352;DHT22;22382;44.768;17.206;2022-09-01T04:26:46;18.30;99.90
36352;DHT22;22382;44.768;17.206;2022-09-01T04:29:16;18.30;99.90
36352;DHT22;22382;44.768;17.206;2022-09-01T04:31:44;18.30;99.90
36352;DHT22;22382;44.768;17.206;2022-09-01T04:34:20;18.30;99.90
36352;DHT22;22382;44.768;17.206;2022-09-01T04:36:48;18.20;99.90
36352;DHT22;22382;44.768;17.206;2022-09-01T04:39:21;18.20;99.90
36352;DHT22;22382;44.768;17.206;2022-09-01T04:41:48;18.10;99.90
36352;DHT22;22382;44.768;17.206;2022-09-01T04:44:17;18.10;99.90
36352;DHT22;22382;44.768;17.206;2022-09-01T04:46:46;18.00;99.90
36352;DHT22;22382;44.768;17.206;2022-09-01T04:49:18;18.10;99.90
36352;DHT22;22382;44.768;17.206;2022-09-01T04:51:51;18.00;99.90
36352;DHT22;22382;44.768;17.206;2022-09-01T04:54:21;18.00;99.90
36352;DHT22;22382;44.768;17.206;2022-09-01T04:56:49;18.00;99.90
36352;DHT22;22382;44.768;17.206;2022-09-01T04:59:20;18.00;99.90
36352;DHT22;22382;44.768;17.206;2022-09-01T05:01:48;18.00;99.90
36352;DHT22;22382;44.768;17.206;2022-09-01T05:04:24;18.00;99.90
36352;DHT22;22382;44.768;17.206;2022-09-01T05:06:55;18.00;99.90
36352;DHT22;22382;44.768;17.206;2022-09-01T05:09:31;18.00;99.90
36352;DHT22;22382;44.768;17.206;2022-09-01T05:11:58;18.00;99.90
36352;DHT22;22382;44.768;17.206;2022-09-01T05:14:43;18.00;99.90
36352;DHT22;22382;44.768;17.206;2022-09-01T05:17:13;18.00;99.90
36352;DHT22;22382;44.768;17.206;2022-09-01T05:19:42;17.90;99.90
36352;DHT22;22382;44.768;17.206;2022-09-01T05:22:10;17.90;99.90
36352;DHT22;22382;44.768;17.206;2022-09-01T05:24:37;17.90;99.90
36352;DHT22;22382;44.768;17.206;2022-09-01T05:27:07;17.80;99.90
36352;DHT22;22382;44.768;17.206;2022-09-01T05:29:36;17.80;99.90
36352;DHT22;22382;44.768;17.206;2022-09-01T05:32:04;17.80;99.90
36352;DHT22;22382;44.768;17.206;2022-09-01T05:34:36;17.80;99.90
36352;DHT22;22382;44.768;17.206;2022-09-01T05:37:06;17.80;99.90
36352;DHT22;22382;44.768;17.206;2022-09-01T05:39:35;17.80;99.90
36352;DHT22;22382;44.768;17.206;2022-09-01T05:42:07;17.70;99.90
36352;DHT22;22382;44.768;17.206;2022-09-01T05:44:35;17.80;99.90
36352;DHT22;22382;44.768;17.206;2022-09-01T05:47:02;17.80;99.90
36352;DHT22;22382;44.768;17.206;2022-09-01T05:49:31;17.80;99.90
36352;DHT22;22382;44.768;17.206;2022-09-01T05:51:59;17.80;99.90
36352;DHT22;22382;44.768;17.206;2022-09-01T05:54:26;17.80;99.90
36352;DHT22;22382;44.768;17.206;2022-09-01T05:56:55;17.80;99.90
36352;DHT22;22382;44.768;17.206;2022-09-01T05:59:43;17.80;99.90
36352;DHT22;22382;44.768;17.206;2022-09-01T06:02:11;17.80;99.90
36352;DHT22;22382;44.768;17.206;2022-09-01T06:04:38;17.90;99.90
36352;DHT22;22382;44.768;17.206;2022-09-01T06:07:07;17.90;99.90
36352;DHT22;22382;44.768;17.206;2022-09-01T06:09:44;17.90;99.90
36352;DHT22;22382;44.768;17.206;2022-09-01T06:12:12;17.80;99.90
36352;DHT22;22382;44.768;17.206;2022-09-01T06:14:46;17.90;99.90
36352;DHT22;22382;44.768;17.206;2022-09-01T06:17:13;17.80;99.90
36352;DHT22;22382;44.768;17.206;2022-09-01T06:19:42;17.80;99.90
36352;DHT22;22382;44.768;17.206;2022-09-01T06:22:10;17.80;99.90
36352;DHT22;22382;44.768;17.206;2022-09-01T06:24:38;17.80;99.90
36352;DHT22;22382;44.768;17.206;2022-09-01T06:27:11;17.80;99.90
36352;DHT22;22382;44.768;17.206;2022-09-01T06:29:38;17.80;99.90
36352;DHT22;22382;44.768;17.206;2022-09-01T06:32:07;17.80;99.90
36352;DHT22;22382;44.768;17.206;2022-09-01T06:34:39;17.70;99.90
36352;DHT22;22382;44.768;17.206;2022-09-01T06:37:09;17.80;99.90
36352;DHT22;22382;44.768;17.206;2022-09-01T06:39:37;17.80;99.90
36352;DHT22;22382;44.768;17.206;2022-09-01T06:42:04;17.80;99.90
36352;DHT22;22382;44.768;17.206;2022-09-01T06:44:32;17.80;99.90
36352;DHT22;22382;44.768;17.206;2022-09-01T06:47:06;17.90;99.90
36352;DHT22;22382;44.768;17.206;2022-09-01T06:49:35;17.80;99.90
36352;DHT22;22382;44.768;17.206;2022-09-01T06:52:03;17.80;99.90
36352;DHT22;22382;44.768;17.206;2022-09-01T06:54:31;17.80;99.90
36352;DHT22;22382;44.768;17.206;2022-09-01T06:57:04;17.80;99.90
36352;DHT22;22382;44.768;17.206;2022-09-01T06:59:51;17.80;99.90
36352;DHT22;22382;44.768;17.206;2022-09-01T07:02:20;17.70;99.90
36352;DHT22;22382;44.768;17.206;2022-09-01T07:04:53;17.60;99.90
36352;DHT22;22382;44.768;17.206;2022-09-01T07:07:20;17.70;99.90
36352;DHT22;22382;44.768;17.206;2022-09-01T07:10:08;17.70;99.90
36352;DHT22;22382;44.768;17.206;2022-09-01T07:12:56;17.80;99.90
36352;DHT22;22382;44.768;17.206;2022-09-01T07:15:32;17.60;99.90
36352;DHT22;22382;44.768;17.206;2022-09-01T07:18:23;17.60;99.90
36352;DHT22;22382;44.768;17.206;2022-09-01T07:20:52;17.70;99.90
36352;DHT22;22382;44.768;17.206;2022-09-01T07:23:40;17.70;99.90
36352;DHT22;22382;44.768;17.206;2022-09-01T07:26:30;17.80;99.90
36352;DHT22;22382;44.768;17.206;2022-09-01T07:28:57;17.90;99.90
36352;DHT22;22382;44.768;17.206;2022-09-01T07:31:38;18.00;99.90
36352;DHT22;22382;44.768;17.206;2022-09-01T07:34:26;18.10;99.90
36352;DHT22;22382;44.768;17.206;2022-09-01T07:37:13;18.20;99.90
36352;DHT22;22382;44.768;17.206;2022-09-01T07:40:00;18.20;99.90
36352;DHT22;22382;44.768;17.206;2022-09-01T07:42:53;18.30;99.90
36352;DHT22;22382;44.768;17.206;2022-09-01T07:45:28;18.40;99.90
36352;DHT22;22382;44.768;17.206;2022-09-01T07:47:57;18.50;99.90
36352;DHT22;22382;44.768;17.206;2022-09-01T07:50:26;18.50;99.90
36352;DHT22;22382;44.768;17.206;2022-09-01T07:53:16;18.60;99.90
36352;DHT22;22382;44.768;17.206;2022-09-01T07:55:45;18.60;99.90
36352;DHT22;22382;44.768;17.206;2022-09-01T07:58:12;18.60;99.90
36352;DHT22;22382;44.768;17.206;2022-09-01T08:00:40;18.70;99.90
36352;DHT22;22382;44.768;17.206;2022-09-01T08:03:11;18.70;99.90
36352;DHT22;22382;44.768;17.206;2022-09-01T08:05:39;18.70;99.90
36352;DHT22;22382;44.768;17.206;2022-09-01T08:08:06;18.80;99.90
36352;DHT22;22382;44.768;17.206;2022-09-01T08:10:53;18.80;99.90
36352;DHT22;22382;44.768;17.206;2022-09-01T08:13:30;18.90;99.90
36352;DHT22;22382;44.768;17.206;2022-09-01T08:16:05;18.90;99.90
36352;DHT22;22382;44.768;17.206;2022-09-01T08:18:34;19.00;99.90
36352;DHT22;22382;44.768;17.206;2022-09-01T08:21:21;19.00;99.90
36352;DHT22;22382;44.768;17.206;2022-09-01T08:23:50;19.00;99.90
36352;DHT22;22382;44.768;17.206;2022-09-01T08:26:20;19.00;99.90
36352;DHT22;22382;44.768;17.206;2022-09-01T08:28:48;19.00;99.90
36352;DHT22;22382;44.768;17.206;2022-09-01T08:31:20;19.00;99.90
36352;DHT22;22382;44.768;17.206;2022-09-01T08:33:49;19.00;99.90
36352;DHT22;22382;44.768;17.206;2022-09-01T08:36:17;19.00;99.90
36352;DHT22;22382;44.768;17.206;2022-09-01T08:38:51;19.10;99.90
36352;DHT22;22382;44.768;17.206;2022-09-01T08:47:04;19.30;99.90
36352;DHT22;22382;44.768;17.206;2022-09-01T08:49:34;19.40;99.90
36352;DHT22;22382;44.768;17.206;2022-09-01T08:54:50;19.40;99.90
36352;DHT22;22382;44.768;17.206;2022-09-01T08:57:45;19.50;99.90
36352;DHT22;22382;44.768;17.206;2022-09-01T09:00:14;19.60;99.90
36352;DHT22;22382;44.768;17.206;2022-09-01T09:11:03;19.60;99.90
36352;DHT22;22382;44.768;17.206;2022-09-01T09:13:39;19.50;99.90
36352;DHT22;22382;44.768;17.206;2022-09-01T09:16:21;19.50;99.90
36352;DHT22;22382;44.768;17.206;2022-09-01T09:19:03;19.30;99.90
36352;DHT22;22382;44.768;17.206;2022-09-01T09:21:40;19.20;99.90
36352;DHT22;22382;44.768;17.206;2022-09-01T09:26:53;19.10;99.90
36352;DHT22;22382;44.768;17.206;2022-09-01T09:29:21;19.00;99.90
36352;DHT22;22382;44.768;17.206;2022-09-01T09:32:01;19.10;99.90
36352;DHT22;22382;44.768;17.206;2022-09-01T09:34:34;19.00;99.90
36352;DHT22;22382;44.768;17.206;2022-09-01T09:37:29;19.00;99.90
36352;DHT22;22382;44.768;17.206;2022-09-01T09:42:41;19.00;99.90
36352;DHT22;22382;44.768;17.206;2022-09-01T09:47:50;19.00;99.90
36352;DHT22;22382;44.768;17.206;2022-09-01T09:50:29;19.00;99.90
36352;DHT22;22382;44.768;17.206;2022-09-01T09:53:35;19.00;99.90
36352;DHT22;22382;44.768;17.206;2022-09-01T09:58:43;18.90;99.90
36352;DHT22;22382;44.768;17.206;2022-09-01T10:03:44;19.00;99.90
36352;DHT22;22382;44.768;17.206;2022-09-01T10:08:56;19.00;99.90
36352;DHT22;22382;44.768;17.206;2022-09-01T10:11:37;19.00;99.90
36352;DHT22;22382;44.768;17.206;2022-09-01T10:14:15;19.00;99.90
36352;DHT22;22382;44.768;17.206;2022-09-01T10:17:16;18.90;99.90
36352;DHT22;22382;44.768;17.206;2022-09-01T10:19:55;19.10;99.90
36352;DHT22;22382;44.768;17.206;2022-09-01T10:22:23;19.20;99.90
36352;DHT22;22382;44.768;17.206;2022-09-01T10:24:51;19.30;99.90
36352;DHT22;22382;44.768;17.206;2022-09-01T10:27:24;19.30;99.90
36352;DHT22;22382;44.768;17.206;2022-09-01T10:32:56;19.50;99.90
36352;DHT22;22382;44.768;17.206;2022-09-01T10:35:35;19.50;99.90
36352;DHT22;22382;44.768;17.206;2022-09-01T10:38:18;19.60;99.90
36352;DHT22;22382;44.768;17.206;2022-09-01T10:40:52;19.60;99.90
36352;DHT22;22382;44.768;17.206;2022-09-01T10:43:42;19.60;99.90
36352;DHT22;22382;44.768;17.206;2022-09-01T10:51:56;19.50;99.90
36352;DHT22;22382;44.768;17.206;2022-09-01T10:57:38;19.50;99.90
36352;DHT22;22382;44.768;17.206;2022-09-01T11:06:01;19.30;99.90
36352;DHT22;22382;44.768;17.206;2022-09-01T11:08:59;19.30;99.90
36352;DHT22;22382;44.768;17.206;2022-09-01T11:14:22;19.30;99.90
36352;DHT22;22382;44.768;17.206;2022-09-01T11:19:55;19.30;99.90
36352;DHT22;22382;44.768;17.206;2022-09-01T11:23:02;19.30;99.90
36352;DHT22;22382;44.768;17.206;2022-09-01T11:47:21;19.30;99.90
36352;DHT22;22382;44.768;17.206;2022-09-01T11:52:22;19.30;99.90
36352;DHT22;22382;44.768;17.206;2022-09-01T11:54:50;19.40;99.90
36352;DHT22;22382;44.768;17.206;2022-09-01T11:59:56;19.40;99.90
36352;DHT22;22382;44.768;17.206;2022-09-01T12:02:26;19.50;99.90
36352;DHT22;22382;44.768;17.206;2022-09-01T12:04:55;19.50;99.90
36352;DHT22;22382;44.768;17.206;2022-09-01T12:07:37;19.60;99.90
36352;DHT22;22382;44.768;17.206;2022-09-01T12:10:35;19.60;99.90
36352;DHT22;22382;44.768;17.206;2022-09-01T12:13:22;19.50;99.90
36352;DHT22;22382;44.768;17.206;2022-09-01T12:15:55;19.30;99.90
36352;DHT22;22382;44.768;17.206;2022-09-01T12:18:46;19.20;99.90
36352;DHT22;22382;44.768;17.206;2022-09-01T12:21:29;19.00;99.90
36352;DHT22;22382;44.768;17.206;2022-09-01T12:24:35;18.90;99.90
36352;DHT22;22382;44.768;17.206;2022-09-01T12:27:03;18.80;99.90
36352;DHT22;22382;44.768;17.206;2022-09-01T12:29:30;18.80;99.90
36352;DHT22;22382;44.768;17.206;2022-09-01T12:31:59;18.80;99.90
36352;DHT22;22382;44.768;17.206;2022-09-01T12:37:07;18.70;99.90
36352;DHT22;22382;44.768;17.206;2022-09-01T12:39:40;18.70;99.90
36352;DHT22;22382;44.768;17.206;2022-09-01T12:50:52;18.60;99.90
36352;DHT22;22382;44.768;17.206;2022-09-01T12:53:00;18.60;99.90
36352;DHT22;22382;44.768;17.206;2022-09-01T12:55:30;18.70;99.90
36352;DHT22;22382;44.768;17.206;2022-09-01T12:58:20;18.60;99.90
36352;DHT22;22382;44.768;17.206;2022-09-01T13:01:03;18.40;99.90
36352;DHT22;22382;44.768;17.206;2022-09-01T13:03:34;18.10;99.90
36352;DHT22;22382;44.768;17.206;2022-09-01T13:06:02;17.90;99.90
36352;DHT22;22382;44.768;17.206;2022-09-01T13:08:33;17.70;99.90
36352;DHT22;22382;44.768;17.206;2022-09-01T13:11:04;17.70;99.90
36352;DHT22;22382;44.768;17.206;2022-09-01T13:13:31;17.60;99.90
36352;DHT22;22382;44.768;17.206;2022-09-01T13:16:02;17.50;99.90
36352;DHT22;22382;44.768;17.206;2022-09-01T13:18:41;17.40;99.90
36352;DHT22;22382;44.768;17.206;2022-09-01T13:21:30;17.40;99.90
36352;DHT22;22382;44.768;17.206;2022-09-01T13:23:58;17.40;99.90
36352;DHT22;22382;44.768;17.206;2022-09-01T13:26:25;17.40;99.90
36352;DHT22;22382;44.768;17.206;2022-09-01T13:28:52;17.40;99.90
36352;DHT22;22382;44.768;17.206;2022-09-01T13:31:19;17.50;99.90
36352;DHT22;22382;44.768;17.206;2022-09-01T13:33:55;17.60;99.90
36352;DHT22;22382;44.768;17.206;2022-09-01T13:36:42;17.60;99.90
36352;DHT22;22382;44.768;17.206;2022-09-01T13:39:15;17.60;99.90
36352;DHT22;22382;44.768;17.206;2022-09-01T13:41:44;17.50;99.90
36352;DHT22;22382;44.768;17.206;2022-09-01T13:44:13;17.50;99.90
36352;DHT22;22382;44.768;17.206;2022-09-01T13:46:40;17.40;99.90
36352;DHT22;22382;44.768;17.206;2022-09-01T13:49:27;17.30;99.90
36352;DHT22;22382;44.768;17.206;2022-09-01T13:52:14;17.30;99.90
36352;DHT22;22382;44.768;17.206;2022-09-01T13:54:41;17.20;99.90
36352;DHT22;22382;44.768;17.206;2022-09-01T13:57:10;17.20;99.90
36352;DHT22;22382;44.768;17.206;2022-09-01T13:59:37;17.10;99.90
36352;DHT22;22382;44.768;17.206;2022-09-01T14:02:05;17.10;99.90
36352;DHT22;22382;44.768;17.206;2022-09-01T14:04:32;17.20;99.90
36352;DHT22;22382;44.768;17.206;2022-09-01T14:06:59;17.30;99.90
36352;DHT22;22382;44.768;17.206;2022-09-01T14:09:26;17.40;99.90
36352;DHT22;22382;44.768;17.206;2022-09-01T14:11:53;17.40;99.90
36352;DHT22;22382;44.768;17.206;2022-09-01T14:14:21;17.40;99.90
36352;DHT22;22382;44.768;17.206;2022-09-01T14:16:48;17.40;99.90
36352;DHT22;22382;44.768;17.206;2022-09-01T14:19:15;17.40;99.90
36352;DHT22;22382;44.768;17.206;2022-09-01T14:21:42;17.10;99.90
36352;DHT22;22382;44.768;17.206;2022-09-01T14:24:12;17.00;99.90
36352;DHT22;22382;44.768;17.206;2022-09-01T14:26:42;16.90;99.90
36352;DHT22;22382;44.768;17.206;2022-09-01T14:29:09;17.00;99.90
36352;DHT22;22382;44.768;17.206;2022-09-01T14:31:36;17.00;99.90
36352;DHT22;22382;44.768;17.206;2022-09-01T14:34:03;16.90;99.90
36352;DHT22;22382;44.768;17.206;2022-09-01T14:36:32;16.90;99.90
36352;DHT22;22382;44.768;17.206;2022-09-01T14:38:59;16.90;99.90
36352;DHT22;22382;44.768;17.206;2022-09-01T14:41:27;17.00;99.90
36352;DHT22;22382;44.768;17.206;2022-09-01T14:43:54;17.00;99.90
36352;DHT22;22382;44.768;17.206;2022-09-01T14:46:29;16.80;99.90
36352;DHT22;22382;44.768;17.206;2022-09-01T14:49:01;16.90;99.90
36352;DHT22;22382;44.768;17.206;2022-09-01T14:51:29;16.80;99.90
36352;DHT22;22382;44.768;17.206;2022-09-01T14:54:16;16.80;99.90
36352;DHT22;22382;44.768;17.206;2022-09-01T14:56:44;16.70;99.90
36352;DHT22;22382;44.768;17.206;2022-09-01T14:59:31;16.60;99.90
36352;DHT22;22382;44.768;17.206;2022-09-01T15:01:59;16.60;99.90
36352;DHT22;22382;44.768;17.206;2022-09-01T15:04:27;16.60;99.90
36352;DHT22;22382;44.768;17.206;2022-09-01T15:06:54;16.60;99.90
36352;DHT22;22382;44.768;17.206;2022-09-01T15:09:21;16.70;99.90
36352;DHT22;22382;44.768;17.206;2022-09-01T15:11:48;16.70;99.90
36352;DHT22;22382;44.768;17.206;2022-09-01T15:14:15;16.70;99.90
36352;DHT22;22382;44.768;17.206;2022-09-01T15:16:42;16.70;99.90
36352;DHT22;22382;44.768;17.206;2022-09-01T15:19:11;16.80;99.90
36352;DHT22;22382;44.768;17.206;2022-09-01T15:21:40;16.90;99.90
36352;DHT22;22382;44.768;17.206;2022-09-01T15:24:08;16.90;99.90
36352;DHT22;22382;44.768;17.206;2022-09-01T15:26:35;17.00;99.90
36352;DHT22;22382;44.768;17.206;2022-09-01T15:29:04;17.10;99.90
36352;DHT22;22382;44.768;17.206;2022-09-01T15:31:31;17.00;99.90
36352;DHT22;22382;44.768;17.206;2022-09-01T15:34:01;17.10;99.90
36352;DHT22;22382;44.768;17.206;2022-09-01T15:36:29;17.20;99.90
36352;DHT22;22382;44.768;17.206;2022-09-01T15:38:57;17.20;99.90
36352;DHT22;22382;44.768;17.206;2022-09-01T15:41:27;17.10;99.90
36352;DHT22;22382;44.768;17.206;2022-09-01T15:43:55;17.10;99.90
36352;DHT22;22382;44.768;17.206;2022-09-01T15:46:23;17.00;99.90
36352;DHT22;22382;44.768;17.206;2022-09-01T15:48:58;17.00;99.90
36352;DHT22;22382;44.768;17.206;2022-09-01T15:51:35;17.00;99.90
36352;DHT22;22382;44.768;17.206;2022-09-01T15:54:17;17.10;99.90
36352;DHT22;22382;44.768;17.206;2022-09-01T15:56:45;17.00;99.90
36352;DHT22;22382;44.768;17.206;2022-09-01T15:59:13;17.10;99.90
36352;DHT22;22382;44.768;17.206;2022-09-01T16:01:43;17.10;99.90
36352;DHT22;22382;44.768;17.206;2022-09-01T16:04:14;17.10;99.90
36352;DHT22;22382;44.768;17.206;2022-09-01T16:06:46;17.00;99.90
36352;DHT22;22382;44.768;17.206;2022-09-01T16:09:16;17.00;99.90
36352;DHT22;22382;44.768;17.206;2022-09-01T16:11:44;17.10;99.90
36352;DHT22;22382;44.768;17.206;2022-09-01T16:14:11;17.10;99.90
36352;DHT22;22382;44.768;17.206;2022-09-01T16:17:09;17.10;99.90
36352;DHT22;22382;44.768;17.206;2022-09-01T16:19:55;17.20;99.90
36352;DHT22;22382;44.768;17.206;2022-09-01T16:22:32;17.20;99.90
36352;DHT22;22382;44.768;17.206;2022-09-01T16:25:12;17.20;99.90
36352;DHT22;22382;44.768;17.206;2022-09-01T16:27:41;17.20;99.90
36352;DHT22;22382;44.768;17.206;2022-09-01T16:30:12;17.20;99.90
36352;DHT22;22382;44.768;17.206;2022-09-01T16:32:45;17.10;99.90
36352;DHT22;22382;44.768;17.206;2022-09-01T16:35:14;17.10;99.90
36352;DHT22;22382;44.768;17.206;2022-09-01T16:38:12;17.10;99.90
36352;DHT22;22382;44.768;17.206;2022-09-01T16:40:49;17.00;99.90
36352;DHT22;22382;44.768;17.206;2022-09-01T16:56:30;16.90;99.90
36352;DHT22;22382;44.768;17.206;2022-09-01T17:04:39;17.30;99.90
36352;DHT22;22382;44.768;17.206;2022-09-01T17:07:14;17.20;99.90
36352;DHT22;22382;44.768;17.206;2022-09-01T17:09:44;17.00;99.90
36352;DHT22;22382;44.768;17.206;2022-09-01T17:14:59;16.80;99.90
36352;DHT22;22382;44.768;17.206;2022-09-01T17:20:15;16.80;99.90
36352;DHT22;22382;44.768;17.206;2022-09-01T17:22:50;16.70;99.90
36352;DHT22;22382;44.768;17.206;2022-09-01T17:25:36;16.70;99.90
36352;DHT22;22382;44.768;17.206;2022-09-01T17:28:11;16.80;99.90
36352;DHT22;22382;44.768;17.206;2022-09-01T17:30:52;16.80;99.90
36352;DHT22;22382;44.768;17.206;2022-09-01T17:33:32;16.80;99.90
36352;DHT22;22382;44.768;17.206;2022-09-01T17:36:05;16.70;99.90
36352;DHT22;22382;44.768;17.206;2022-09-01T17:41:20;16.80;99.90
36352;DHT22;22382;44.768;17.206;2022-09-01T17:43:57;16.80;99.90
36352;DHT22;22382;44.768;17.206;2022-09-01T17:46:29;16.70;99.90
36352;DHT22;22382;44.768;17.206;2022-09-01T17:57:59;16.60;99.90
36352;DHT22;22382;44.768;17.206;2022-09-01T18:06:36;16.70;99.90
36352;DHT22;22382;44.768;17.206;2022-09-01T18:09:06;16.70;99.90